createdAt,value
2019-05-03T00:01:07.424Z,99.90
2019-05-03T00:03:37.660Z,99.90
2019-05-03T00:06:07.775Z,99.90
2019-05-03T00:08:38.025Z,99.90
2019-05-03T00:11:08.185Z,99.90
2019-05-03T00:13:38.433Z,99.90
2019-05-03T00:16:12.076Z,99.90
2019-05-03T00:18:42.267Z,99.90
2019-05-03T00:21:12.464Z,99.90
2019-05-03T00:23:42.579Z,99.90
2019-05-03T00:26:12.686Z,99.90
2019-05-03T00:28:42.752Z,99.90
2019-05-03T00:31:12.982Z,99.90
2019-05-03T00:33:44.585Z,99.90
2019-05-03T00:36:18.602Z,99.90
2019-05-03T00:41:18.533Z,99.90
2019-05-03T00:43:48.622Z,99.90
2019-05-03T00:46:18.556Z,99.90
2019-05-03T00:48:48.669Z,99.90
2019-05-03T00:51:18.710Z,99.90
2019-05-03T00:53:48.731Z,99.90
2019-05-03T00:56:18.839Z,99.90
2019-05-03T00:58:50.396Z,99.90
2019-05-03T01:01:22.409Z,99.90
2019-05-03T01:03:53.077Z,99.90
2019-05-03T01:06:23.295Z,99.90
2019-05-03T01:08:53.475Z,99.90
2019-05-03T01:11:23.444Z,99.90
2019-05-03T01:13:53.579Z,99.90
2019-05-03T01:16:25.396Z,99.90
2019-05-03T01:18:55.531Z,99.90
2019-05-03T01:21:25.614Z,99.90
2019-05-03T01:23:55.749Z,98.10
2019-05-03T01:26:25.755Z,99.90
2019-05-03T01:28:55.819Z,97.90
2019-05-03T01:31:25.867Z,99.90
2019-05-03T01:33:55.917Z,97.70
2019-05-03T01:36:26.040Z,97.60
2019-05-03T01:38:56.274Z,97.50
2019-05-03T01:41:26.250Z,97.40
2019-05-03T01:43:56.297Z,99.90
2019-05-03T01:46:26.194Z,99.90
2019-05-03T01:49:03.992Z,99.90
2019-05-03T01:51:38.829Z,96.90
2019-05-03T01:54:08.846Z,99.90
2019-05-03T01:56:39.079Z,99.90
2019-05-03T02:01:43.095Z,99.90
2019-05-03T02:04:27.235Z,99.90
2019-05-03T02:06:57.348Z,99.90
2019-05-03T02:09:27.583Z,99.90
2019-05-03T02:11:57.600Z,99.90
2019-05-03T02:14:27.913Z,99.90
2019-05-03T02:16:57.943Z,95.90
2019-05-03T02:19:28.152Z,99.90
2019-05-03T02:21:58.366Z,96.00
2019-05-03T02:24:28.591Z,99.90
2019-05-03T02:26:58.705Z,99.90
2019-05-03T02:29:29.061Z,99.90
2019-05-03T02:31:59.356Z,99.90
2019-05-03T02:34:29.375Z,99.90
2019-05-03T02:36:59.375Z,99.90
2019-05-03T02:39:29.519Z,96.10
2019-05-03T02:42:06.783Z,96.00
2019-05-03T02:44:31.474Z,96.00
2019-05-03T02:47:12.457Z,99.90
2019-05-03T02:49:45.545Z,99.90
2019-05-03T02:52:36.589Z,99.90
2019-05-03T02:55:09.634Z,99.90
2019-05-03T02:57:39.712Z,96.30
2019-05-03T03:00:12.376Z,99.90
2019-05-03T03:02:42.458Z,99.90
2019-05-03T03:05:16.319Z,99.90
2019-05-03T03:07:47.094Z,99.90
2019-05-03T03:10:17.630Z,99.90
2019-05-03T03:12:50.644Z,99.90
2019-05-03T03:15:20.732Z,99.90
2019-05-03T03:17:55.811Z,99.90
2019-05-03T03:20:25.468Z,99.90
2019-05-03T03:22:58.361Z,99.90
2019-05-03T03:25:35.976Z,99.90
2019-05-03T03:28:06.897Z,96.80
2019-05-03T03:30:57.603Z,99.90
2019-05-03T03:33:28.348Z,99.90
2019-05-03T03:36:29.462Z,99.90
2019-05-03T03:38:30.610Z,99.90
2019-05-03T03:41:01.713Z,99.90
2019-05-03T03:43:35.320Z,99.90
2019-05-03T03:46:05.403Z,97.00
2019-05-03T03:48:37.516Z,99.90
2019-05-03T03:51:09.946Z,97.10
2019-05-03T03:53:42.357Z,99.90
2019-05-03T03:56:15.978Z,99.90
2019-05-03T03:58:47.717Z,99.90
2019-05-03T04:01:18.315Z,99.90
2019-05-03T04:03:48.517Z,99.90
2019-05-03T04:06:18.948Z,99.90
2019-05-03T04:08:51.146Z,99.90
2019-05-03T04:11:21.509Z,99.90
2019-05-03T04:13:51.701Z,99.90
2019-05-03T04:19:12.926Z,99.90
2019-05-03T04:21:45.321Z,99.80
2019-05-03T04:24:16.305Z,99.90
2019-05-03T04:26:46.754Z,99.90
2019-05-03T04:29:16.876Z,99.90
2019-05-03T04:31:47.118Z,99.90
2019-05-03T04:34:17.314Z,99.90
2019-05-03T04:36:47.437Z,99.90
2019-05-03T04:39:20.240Z,99.90
2019-05-03T04:41:49.318Z,99.90
2019-05-03T04:44:19.298Z,99.90
2019-05-03T04:46:49.351Z,99.90
2019-05-03T04:49:19.349Z,99.90
2019-05-03T04:51:49.686Z,99.90
2019-05-03T04:54:30.239Z,99.90
2019-05-03T04:57:00.457Z,99.90
2019-05-03T04:59:30.356Z,99.90
2019-05-03T05:02:00.595Z,99.90
2019-05-03T05:04:30.608Z,99.90
2019-05-03T05:07:00.645Z,99.90
2019-05-03T05:09:30.631Z,99.90
2019-05-03T05:12:00.642Z,99.90
2019-05-03T05:14:30.674Z,99.90
2019-05-03T05:17:00.783Z,99.90
2019-05-03T05:19:45.188Z,99.90
2019-05-03T05:22:19.549Z,99.90
2019-05-03T05:27:25.637Z,99.90
2019-05-03T05:29:55.548Z,99.90
2019-05-03T05:32:25.468Z,99.90
2019-05-03T05:34:55.488Z,99.90
2019-05-03T05:37:25.680Z,99.90
2019-05-03T05:39:55.824Z,99.90
2019-05-03T05:42:25.928Z,99.90
2019-05-03T05:44:56.035Z,99.90
2019-05-03T05:47:27.699Z,99.90
2019-05-03T05:49:59.169Z,99.90
2019-05-03T05:52:29.269Z,99.90
2019-05-03T05:55:06.454Z,99.90
2019-05-03T05:57:38.402Z,99.90
2019-05-03T06:00:15.202Z,99.90
2019-05-03T06:02:44.815Z,99.90
2019-05-03T06:05:14.867Z,99.90
2019-05-03T06:07:58.762Z,99.30
2019-05-03T06:10:34.803Z,99.90
2019-05-03T06:13:09.962Z,99.90
2019-05-03T06:15:44.772Z,99.90
2019-05-03T06:18:24.902Z,99.90
2019-05-03T06:21:08.242Z,99.90
2019-05-03T06:23:42.755Z,99.90
2019-05-03T06:26:30.809Z,97.80
2019-05-03T06:29:01.228Z,99.90
2019-05-03T06:31:35.658Z,99.90
2019-05-03T06:34:05.805Z,99.90
2019-05-03T06:36:36.318Z,99.90
2019-05-03T06:39:09.390Z,99.90
2019-05-03T06:41:39.496Z,99.90
2019-05-03T06:44:09.610Z,99.90
2019-05-03T06:46:45.611Z,99.90
2019-05-03T06:49:16.097Z,96.90
2019-05-03T06:54:20.569Z,99.90
2019-05-03T06:56:50.773Z,99.90
2019-05-03T06:59:37.571Z,99.90
2019-05-03T07:02:09.641Z,99.90
2019-05-03T07:04:44.945Z,99.90
2019-05-03T07:07:29.007Z,99.90
2019-05-03T07:10:17.249Z,99.90
2019-05-03T07:13:01.106Z,99.90
2019-05-03T07:18:00.729Z,99.90
2019-05-03T07:20:32.461Z,99.90
2019-05-03T07:23:04.269Z,99.90
2019-05-03T07:25:34.442Z,99.90
2019-05-03T07:30:35.208Z,99.90
2019-05-03T07:33:07.968Z,99.90
2019-05-03T07:35:38.312Z,99.90
2019-05-03T07:38:08.325Z,99.90
2019-05-03T07:40:38.949Z,99.90
2019-05-03T07:45:38.462Z,99.90
2019-05-03T07:48:08.773Z,99.90
2019-05-03T07:50:38.652Z,99.90
2019-05-03T07:53:08.723Z,99.90
2019-05-03T07:55:54.657Z,99.90
2019-05-03T07:58:28.623Z,95.40
2019-05-03T08:03:34.705Z,99.90
2019-05-03T08:06:04.992Z,99.90
2019-05-03T08:08:35.519Z,99.90
2019-05-03T08:13:35.669Z,99.90
2019-05-03T08:18:38.739Z,99.90
2019-05-03T08:21:09.099Z,99.90
2019-05-03T08:23:39.309Z,99.90
2019-05-03T08:26:09.636Z,99.90
2019-05-03T08:28:39.655Z,99.90
2019-05-03T08:31:30.237Z,99.90
2019-05-03T08:36:51.450Z,99.90
2019-05-03T08:39:22.057Z,99.90
2019-05-03T08:41:56.685Z,99.90
2019-05-03T08:44:29.442Z,99.90
2019-05-03T08:47:05.929Z,99.90
2019-05-03T08:49:36.828Z,99.90
2019-05-03T08:52:09.518Z,99.90
2019-05-03T08:54:39.618Z,99.90
2019-05-03T08:57:09.733Z,99.90
2019-05-03T08:59:39.744Z,99.90
2019-05-03T09:02:17.962Z,99.90
2019-05-03T09:04:43.253Z,99.90
2019-05-03T09:07:14.770Z,99.90
2019-05-03T09:09:46.370Z,99.90
2019-05-03T09:12:16.556Z,99.90
2019-05-03T09:14:48.469Z,99.90
2019-05-03T09:17:18.234Z,99.90
2019-05-03T09:19:48.153Z,99.90
2019-05-03T09:22:18.181Z,99.90
2019-05-03T09:24:48.147Z,99.90
2019-05-03T09:27:18.107Z,95.30
2019-05-03T09:29:48.132Z,95.10
2019-05-03T09:32:18.306Z,98.40
2019-05-03T09:34:48.355Z,98.70
2019-05-03T09:37:18.385Z,96.80
2019-05-03T09:39:50.243Z,95.80
2019-05-03T09:42:24.925Z,96.90
2019-05-03T09:44:55.706Z,99.00
2019-05-03T09:49:56.016Z,91.40
2019-05-03T09:52:26.107Z,96.00
2019-05-03T09:54:57.893Z,94.90
2019-05-03T09:57:27.813Z,83.40
2019-05-03T10:05:06.224Z,93.10
2019-05-03T10:07:42.929Z,86.80
2019-05-03T10:10:15.432Z,91.00
2019-05-03T10:12:48.460Z,90.20
2019-05-03T10:15:42.283Z,91.70
2019-05-03T10:18:14.541Z,91.40
2019-05-03T10:20:44.867Z,91.50
2019-05-03T10:23:20.108Z,90.40
2019-05-03T10:25:50.113Z,88.40
2019-05-03T10:28:20.025Z,90.00
2019-05-03T10:30:50.043Z,89.20
2019-05-03T10:33:35.652Z,88.00
2019-05-03T10:38:46.241Z,86.90
2019-05-03T10:46:26.417Z,83.50
2019-05-03T10:51:27.543Z,87.70
2019-05-03T10:54:00.890Z,69.40
2019-05-03T10:56:32.387Z,83.70
2019-05-03T10:59:06.004Z,84.20
2019-05-03T11:01:49.313Z,85.00
2019-05-03T11:04:19.223Z,84.30
2019-05-03T11:06:49.254Z,83.80
2019-05-03T11:09:19.162Z,80.10
2019-05-03T11:11:49.198Z,79.80
2019-05-03T11:14:19.193Z,78.20
2019-05-03T11:16:49.351Z,77.20
2019-05-03T11:19:19.422Z,77.20
2019-05-03T11:21:49.465Z,80.00
2019-05-03T11:26:50.485Z,77.90
2019-05-03T11:29:20.515Z,77.00
2019-05-03T11:31:52.055Z,77.70
2019-05-03T11:34:29.666Z,77.50
2019-05-03T11:37:16.571Z,76.20
2019-05-03T11:39:46.695Z,77.30
2019-05-03T11:42:18.589Z,76.80
2019-05-03T11:44:48.463Z,76.30
2019-05-03T11:49:47.992Z,75.10
2019-05-03T11:52:18.104Z,72.00
2019-05-03T11:54:48.095Z,71.40
2019-05-03T11:57:23.996Z,71.60
2019-05-03T11:59:54.809Z,73.70
2019-05-03T12:02:26.761Z,71.90
2019-05-03T12:04:57.896Z,73.50
2019-05-03T12:07:39.315Z,72.60
2019-05-03T12:10:16.883Z,72.50
2019-05-03T12:12:44.030Z,48.90
2019-05-03T12:15:15.092Z,70.70
2019-05-03T12:17:53.956Z,70.30
2019-05-03T12:20:20.380Z,68.70
2019-05-03T12:22:51.060Z,68.00
2019-05-03T12:25:21.887Z,67.80
2019-05-03T12:27:52.207Z,68.40
2019-05-03T12:30:26.995Z,67.20
2019-05-03T12:32:54.832Z,69.60
2019-05-03T12:35:26.369Z,70.70
2019-05-03T12:40:25.973Z,67.30
2019-05-03T12:45:25.536Z,66.40
2019-05-03T12:50:25.927Z,64.00
2019-05-03T12:52:57.582Z,63.10
2019-05-03T12:55:28.421Z,63.20
2019-05-03T12:58:00.518Z,64.00
2019-05-03T13:00:50.457Z,66.60
2019-05-03T13:05:57.271Z,67.10
2019-05-03T13:08:36.252Z,68.20
2019-05-03T13:16:09.878Z,67.00
2019-05-03T13:18:40.140Z,67.70
2019-05-03T13:21:10.848Z,68.00
2019-05-03T13:26:10.300Z,69.20
2019-05-03T13:28:40.315Z,70.80
2019-05-03T13:31:10.225Z,61.60
2019-05-03T13:41:09.967Z,70.00
2019-05-03T13:43:39.896Z,68.80
2019-05-03T13:48:45.548Z,62.20
2019-05-03T13:51:14.595Z,67.70
2019-05-03T13:53:44.018Z,55.30
2019-05-03T13:56:15.285Z,68.50
2019-05-03T13:58:45.413Z,46.60
2019-05-03T14:01:15.628Z,68.30
2019-05-03T14:03:45.666Z,69.90
2019-05-03T14:08:45.565Z,68.70
2019-05-03T14:11:15.906Z,68.00
2019-05-03T14:13:45.911Z,70.20
2019-05-03T14:16:16.021Z,69.00
2019-05-03T14:18:47.778Z,47.00
2019-05-03T14:24:07.275Z,66.80
2019-05-03T14:26:37.502Z,66.70
2019-05-03T14:29:07.493Z,66.50
2019-05-03T14:31:37.620Z,65.20
2019-05-03T14:34:07.714Z,66.80
2019-05-03T14:36:37.764Z,69.50
2019-05-03T14:39:10.072Z,67.20
2019-05-03T14:44:09.652Z,65.50
2019-05-03T14:46:39.841Z,65.00
2019-05-03T14:49:10.029Z,68.40
2019-05-03T14:51:39.996Z,70.40
2019-05-03T14:54:10.625Z,68.30
2019-05-03T14:56:48.013Z,69.50
2019-05-03T14:59:28.583Z,67.10
2019-05-03T15:02:16.822Z,67.70
2019-05-03T15:04:47.667Z,67.80
2019-05-03T15:07:17.784Z,66.80
2019-05-03T15:09:47.889Z,66.50
2019-05-03T15:12:18.019Z,64.50
2019-05-03T15:14:47.926Z,66.30
2019-05-03T15:17:18.165Z,67.90
2019-05-03T15:19:48.249Z,68.20
2019-05-03T15:24:49.012Z,65.90
2019-05-03T15:27:20.367Z,66.60
2019-05-03T15:29:50.363Z,67.70
2019-05-03T15:32:20.492Z,68.40
2019-05-03T15:34:50.500Z,70.10
2019-05-03T15:39:49.927Z,70.40
2019-05-03T15:42:21.486Z,66.30
2019-05-03T15:44:58.862Z,71.20
2019-05-03T15:47:36.764Z,70.90
2019-05-03T15:50:07.388Z,70.70
2019-05-03T15:52:37.517Z,69.80
2019-05-03T15:55:08.473Z,69.60
2019-05-03T15:57:38.673Z,70.60
2019-05-03T16:00:10.707Z,70.70
2019-05-03T16:02:41.503Z,69.90
2019-05-03T16:12:49.571Z,68.90
2019-05-03T16:18:00.614Z,68.30
2019-05-03T16:23:08.428Z,69.00
2019-05-03T16:25:44.811Z,69.70
2019-05-03T16:30:59.877Z,71.00
2019-05-03T16:33:30.515Z,71.40
2019-05-03T16:36:01.273Z,71.50
2019-05-03T16:41:05.165Z,70.10
2019-05-03T16:43:35.890Z,70.00
2019-05-03T16:46:05.906Z,71.10
2019-05-03T16:48:35.911Z,70.20
2019-05-03T16:56:06.526Z,72.60
2019-05-03T16:58:36.995Z,73.10
2019-05-03T17:03:42.357Z,73.30
2019-05-03T17:06:22.927Z,75.40
2019-05-03T17:08:56.782Z,74.20
2019-05-03T17:13:57.681Z,70.90
2019-05-03T17:16:29.230Z,76.10
2019-05-03T17:18:59.260Z,77.70
2019-05-03T17:21:29.280Z,78.20
2019-05-03T17:23:59.351Z,79.00
2019-05-03T17:26:29.507Z,79.60
2019-05-03T17:29:00.100Z,79.30
2019-05-03T17:31:30.232Z,79.40
2019-05-03T17:34:00.364Z,78.70
2019-05-03T17:36:30.594Z,80.40
2019-05-03T17:39:04.331Z,80.80
2019-05-03T17:41:37.067Z,82.90
2019-05-03T17:46:40.049Z,83.50
2019-05-03T17:49:10.188Z,83.90
2019-05-03T17:51:58.118Z,84.40
2019-05-03T17:54:30.496Z,75.00
2019-05-03T17:57:05.250Z,87.00
2019-05-03T18:02:26.140Z,90.20
2019-05-03T18:05:05.254Z,90.00
2019-05-03T18:07:45.282Z,90.40
2019-05-03T18:10:15.556Z,91.80
2019-05-03T18:12:45.557Z,91.60
2019-05-03T18:15:15.879Z,92.40
2019-05-03T18:17:46.007Z,92.60
2019-05-03T18:20:16.226Z,93.10
2019-05-03T18:22:46.237Z,93.00
2019-05-03T18:25:18.044Z,93.50
2019-05-03T18:27:49.592Z,94.30
2019-05-03T18:32:51.194Z,95.50
2019-05-03T18:35:21.338Z,95.20
2019-05-03T18:43:23.326Z,94.80
2019-05-03T18:45:55.101Z,95.40
2019-05-03T18:48:26.674Z,95.40
2019-05-03T18:50:56.882Z,95.20
2019-05-03T18:53:26.930Z,95.80
2019-05-03T18:55:58.942Z,96.30
2019-05-03T18:58:28.944Z,96.80
2019-05-03T19:00:59.993Z,96.50
2019-05-03T19:03:29.989Z,96.20
2019-05-03T19:06:01.672Z,96.90
2019-05-03T19:11:34.954Z,98.00
2019-05-03T19:14:06.135Z,97.90
2019-05-03T19:16:37.876Z,98.50
2019-05-03T19:19:09.425Z,99.30
2019-05-03T19:21:41.273Z,99.60
2019-05-03T19:24:15.182Z,99.90
2019-05-03T19:26:46.446Z,99.90
2019-05-03T19:29:16.659Z,99.90
2019-05-03T19:31:47.183Z,99.90
2019-05-03T19:34:17.196Z,99.90
2019-05-03T19:36:48.387Z,99.90
2019-05-03T19:39:19.273Z,99.90
2019-05-03T19:41:50.595Z,99.90
2019-05-03T19:44:22.187Z,99.90
2019-05-03T19:46:59.457Z,99.90
2019-05-03T19:49:35.816Z,99.90
2019-05-03T19:52:12.176Z,99.90
2019-05-03T19:57:34.858Z,99.90
2019-05-03T20:00:09.924Z,99.90
2019-05-03T20:02:49.330Z,99.90
2019-05-03T20:05:21.692Z,99.90
2019-05-03T20:10:42.590Z,99.90
2019-05-03T20:13:16.220Z,99.90
2019-05-03T20:15:48.399Z,99.90
2019-05-03T20:18:22.164Z,99.90
2019-05-03T20:20:55.372Z,99.90
2019-05-03T20:23:26.629Z,99.90
2019-05-03T20:26:02.078Z,99.90
2019-05-03T20:28:35.371Z,99.90
2019-05-03T20:38:35.005Z,99.90
2019-05-03T20:41:05.308Z,99.90
2019-05-03T20:43:41.281Z,99.90
2019-05-03T20:46:14.957Z,99.90
2019-05-03T20:51:15.656Z,99.90
2019-05-03T20:56:20.036Z,99.90
2019-05-03T20:58:54.972Z,99.90
2019-05-03T21:01:31.694Z,99.90
2019-05-03T21:04:07.820Z,99.90
2019-05-03T21:06:45.443Z,99.90
2019-05-03T21:09:23.407Z,99.90
2019-05-03T21:12:01.354Z,99.90
2019-05-03T21:17:14.938Z,99.90
2019-05-03T21:20:01.523Z,99.90
2019-05-03T21:22:35.836Z,99.90
2019-05-03T21:25:12.046Z,99.90
2019-05-03T21:27:44.963Z,99.90
2019-05-03T21:30:20.886Z,99.90
2019-05-03T21:32:54.768Z,99.90
2019-05-03T21:35:40.976Z,99.90
2019-05-03T21:40:34.873Z,99.90
2019-05-03T21:43:07.252Z,99.90
2019-05-03T21:45:39.031Z,99.90
2019-05-03T21:48:11.006Z,99.90
2019-05-03T21:50:42.170Z,99.90
2019-05-03T21:53:14.598Z,99.90
2019-05-03T21:55:46.849Z,99.90
2019-05-03T21:58:18.101Z,99.90
2019-05-03T22:00:58.093Z,99.90
2019-05-03T22:03:32.346Z,99.90
2019-05-03T22:06:04.129Z,99.90
2019-05-03T22:08:35.081Z,99.90
2019-05-03T22:11:07.748Z,99.90
2019-05-03T22:13:38.389Z,99.90
2019-05-03T22:16:27.554Z,99.90
2019-05-03T22:18:58.890Z,99.90
2019-05-03T22:21:30.847Z,99.90
2019-05-03T22:24:04.339Z,99.90
2019-05-03T22:26:51.074Z,99.90
2019-05-03T22:29:21.167Z,99.90
2019-05-03T22:31:51.202Z,99.90
2019-05-03T22:34:21.322Z,99.90
2019-05-03T22:36:51.537Z,99.90
2019-05-03T22:39:21.538Z,99.90
2019-05-03T22:41:52.892Z,99.90
2019-05-03T22:44:25.124Z,99.90
2019-05-03T22:46:56.201Z,99.90
2019-05-03T22:49:26.276Z,99.90
2019-05-03T22:51:57.692Z,99.90
2019-05-03T22:54:27.693Z,99.90
2019-05-03T22:56:57.695Z,99.90
2019-05-03T22:59:27.923Z,99.90
2019-05-03T23:01:57.820Z,99.90
2019-05-03T23:04:27.735Z,99.90
2019-05-03T23:06:57.643Z,99.90
2019-05-03T23:09:27.765Z,99.90
2019-05-03T23:11:57.695Z,99.90
2019-05-03T23:14:27.843Z,99.90
2019-05-03T23:16:57.931Z,99.90
2019-05-03T23:19:28.088Z,99.90
2019-05-03T23:22:02.463Z,99.90
2019-05-03T23:24:32.483Z,99.90
2019-05-03T23:27:02.589Z,99.90
2019-05-03T23:29:34.767Z,99.90
2019-05-03T23:32:05.407Z,99.90
2019-05-03T23:34:35.610Z,99.90
2019-05-03T23:37:05.754Z,99.90
2019-05-03T23:39:35.955Z,99.90
2019-05-03T23:42:06.262Z,99.90
2019-05-03T23:44:36.365Z,99.90
2019-05-03T23:47:14.527Z,99.90
2019-05-03T23:52:28.559Z,99.90
2019-05-03T23:55:16.684Z,99.90
2019-05-03T23:57:46.622Z,99.90
